Thailine 5 — 9WFF5 — position and weather

sailwx.info

Track history (hours):
 
Tides and Currents Weather Stations Pressure Air Temp Water Temp Dewpoint Dewpoint Depression Visibility Wind Speed Wind Dir Waves Ship Positions

Thailine 5

Last reported at 2016-Jul-23 12:19 UTC. Time now 2016-Jul-23 13:07 UTC.
Position N 35°04' E 139°37'.

; draft 4.1 m.

Type: Cargo ship. MMSI: 533399000.

Date/timePositionNaut miles runAvg speedWind from/ knotsBaromVisibWave heightAir tempDewpointWater temp
2016-Jul-23 12:19N 35°04' E 139°37'810.0
2016-Jul-23 11:32N 35°09' E 139°44'9 9.4
2016-Jul-23 10:33N 35°18' E 139°44'9 8.8
2016-Jul-23 09:33N 35°27' E 139°47'1010.1
2016-Jul-23 08:33N 35°32' E 139°58'8 7.4
2016-Jul-23 07:32N 35°37' E 140°05'0 0.0
2016-Jul-23 06:32N 35°37' E 140°05'0 0.0
2016-Jul-23 04:26N 35°37' E 140°05'0 0.0
2016-Jul-23 03:32N 35°37' E 140°05'0 0.0
2016-Jul-23 02:32N 35°37' E 140°05'0 0.0
2016-Jul-23 01:32N 35°37' E 140°05'0 0.0
2016-Jul-22 23:32N 35°37' E 140°05'0 0.2
2016-Jul-22 22:32N 35°36' E 140°05'4 3.6
2016-Jul-22 21:32N 35°35' E 140°01'0 0.0
2016-Jul-22 20:20N 35°35' E 140°01'0 0.1
2016-Jul-22 19:29N 35°35' E 140°01'0 0.0
2016-Jul-22 18:23N 35°35' E 140°01'0 0.0
2016-Jul-22 17:23N 35°35' E 140°01'0 0.0
2016-Jul-22 16:11N 35°35' E 140°01'0 0.0
2016-Jul-22 15:23N 35°35' E 140°01'0 0.0
2016-Jul-22 14:29N 35°35' E 140°01'0 0.0
2016-Jul-22 13:32N 35°35' E 140°01'0 0.0
2016-Jul-22 12:32N 35°35' E 140°01'0 0.0
2016-Jul-22 11:29N 35°35' E 140°01'0 0.0
2016-Jul-22 10:23N 35°35' E 140°01'0 0.0
2016-Jul-22 09:29N 35°35' E 140°01'0 0.0
2016-Jul-22 08:17N 35°35' E 140°01'0 0.0
2016-Jul-22 07:29N 35°35' E 140°01'0 0.0
2016-Jul-22 04:29N 35°35' E 140°01'0 0.0
2016-Jul-22 03:29N 35°35' E 140°01'0 0.0
2016-Jul-22 02:23N 35°35' E 140°01'0 0.0
2016-Jul-22 01:23N 35°35' E 140°01'0 0.0
2016-Jul-22 00:11N 35°35' E 140°01'0 0.0
2016-Jul-21 23:29N 35°35' E 140°01'0 0.0
2016-Jul-21 22:29N 35°35' E 140°01'0 0.0
2016-Jul-21 21:29N 35°35' E 140°01'0 0.0
2016-Jul-21 20:32N 35°35' E 140°01'0 0.0
2016-Jul-21 19:29N 35°35' E 140°01'0 0.0
2016-Jul-21 18:23N 35°35' E 140°01'0 0.0
2016-Jul-21 17:29N 35°35' E 140°01'0 0.0
2016-Jul-21 16:32N 35°35' E 140°01'0 0.0
2016-Jul-21 15:29N 35°35' E 140°01'0 0.0
2016-Jul-21 14:32N 35°35' E 140°01'0 0.0
2016-Jul-21 13:23N 35°35' E 140°01'0 0.0
2016-Jul-21 12:23N 35°35' E 140°01'0 0.1
2016-Jul-21 11:32N 35°35' E 140°01'0 0.0
2016-Jul-21 10:32N 35°35' E 140°01'0 0.0
2016-Jul-21 09:32N 35°35' E 140°01'0 0.0
2016-Jul-21 08:29N 35°35' E 140°01'0 0.0
2016-Jul-21 07:17N 35°35' E 140°01'0 0.0
2016-Jul-21 06:29N 35°35' E 140°01'0 0.0
2016-Jul-21 04:29N 35°35' E 140°01'0 0.0
2016-Jul-21 03:26N 35°35' E 140°01'0 0.0
2016-Jul-21 02:32N 35°35' E 140°01'0 0.0
2016-Jul-21 01:29N 35°35' E 140°01'0 0.0
2016-Jul-21 00:29N 35°35' E 140°01'0 0.0
2016-Jul-20 23:29N 35°35' E 140°01'0 0.0
2016-Jul-20 22:17N 35°35' E 140°01'0 0.0
2016-Jul-20 21:29N 35°35' E 140°01'0 0.0
2016-Jul-20 20:29N 35°35' E 140°01'0 0.0
2016-Jul-20 19:29N 35°35' E 140°01'0 0.0
2016-Jul-20 18:29N 35°35' E 140°01'0 0.0
2016-Jul-20 17:29N 35°35' E 140°01'0 0.0
2016-Jul-20 16:23N 35°35' E 140°01'0 0.0
2016-Jul-20 15:29N 35°35' E 140°01'0 0.0
2016-Jul-20 12:23N 35°35' E 140°01'0 0.0
2016-Jul-20 11:29N 35°35' E 140°01'0 0.0
2016-Jul-20 10:29N 35°35' E 140°01'0 0.0
2016-Jul-20 09:29N 35°35' E 140°01'0 0.0
2016-Jul-20 08:29N 35°35' E 140°01'0 0.0
2016-Jul-20 07:29N 35°35' E 140°01'1 0.7
2016-Jul-20 05:32N 35°34' E 139°60'8 8.2
2016-Jul-20 04:33N 35°29' E 139°52'9 9.2
2016-Jul-20 03:33N 35°22' E 139°45'9 8.8
2016-Jul-20 02:33N 35°13' E 139°47'9 9.2
2016-Jul-20 01:33N 35°04' E 139°46'15 7.1
2016-Jul-19 23:29N 34°52' E 139°57'9 9.8
2016-Jul-19 22:33N 34°56' E 140°07'10 9.8
2016-Jul-19 21:33N 34°60' E 140°17'10 9.4
2016-Jul-19 20:30N 35°05' E 140°28'9 9.4
2016-Jul-19 19:33N 35°11' E 140°35'9 8.8
2016-Jul-19 18:33N 35°19' E 140°40'5 1.0
2016-Jul-19 13:19N 35°24' E 140°40'0 0.1
2016-Jul-19 12:23N 35°24' E 140°40'0 0.0
2016-Jul-19 03:05N 35°24' E 140°40'0 0.0
2016-Jul-19 02:32N 35°24' E 140°40'0 0.0
2016-Jul-19 01:32N 35°24' E 140°40'0 0.0
2016-Jul-19 00:33N 35°24' E 140°40'0 0.0
2016-Jul-18 22:33N 35°24' E 140°40'0 0.0
2016-Jul-18 20:33N 35°24' E 140°40'0 0.0
2016-Jul-18 19:26N 35°24' E 140°40'0 0.0
2016-Jul-18 16:24N 35°24' E 140°40'0 0.0
2016-Jul-18 15:15N 35°24' E 140°40'0 0.1
2016-Jul-18 14:12N 35°24' E 140°40'0 0.1
2016-Jul-18 13:27N 35°24' E 140°40'0 0.0
2016-Jul-18 12:12N 35°24' E 140°40'0 0.0
2016-Jul-18 11:20N 35°24' E 140°40'0 0.0
2016-Jul-18 10:27N 35°24' E 140°40'0 0.0
2016-Jul-18 09:33N 35°24' E 140°40'0 0.0
2016-Jul-18 08:33N 35°24' E 140°40'0 0.0
2016-Jul-18 07:33N 35°24' E 140°40'0 0.0
2016-Jul-18 06:25N 35°24' E 140°40'0 0.0
2016-Jul-18 05:30N 35°24' E 140°40'0 0.1
2016-Jul-18 04:19N 35°24' E 140°40'0 0.0
2016-Jul-18 03:24N 35°24' E 140°40'0 0.1
2016-Jul-18 02:26N 35°24' E 140°40'0 0.0
2016-Jul-18 01:33N 35°24' E 140°40'0 0.1
2016-Jul-18 00:33N 35°24' E 140°40'0 0.0
2016-Jul-17 21:13N 35°24' E 140°40'0 0.1
2016-Jul-17 20:11N 35°24' E 140°40'0 0.0
2016-Jul-17 19:33N 35°24' E 140°40'0 0.0
2016-Jul-17 18:26N 35°24' E 140°40'0 0.0
2016-Jul-17 17:33N 35°24' E 140°40'0 0.0
2016-Jul-17 16:33N 35°24' E 140°40'0 0.0
2016-Jul-17 15:33N 35°24' E 140°40'0 0.0
2016-Jul-17 14:32N 35°24' E 140°40'0 0.0
2016-Jul-17 09:19N 35°24' E 140°40'0 0.0
2016-Jul-17 06:09N 35°24' E 140°40'0 0.0
2016-Jul-17 04:33N 35°24' E 140°40'0 0.0
2016-Jul-17 03:33N 35°24' E 140°40'0 0.0
2016-Jul-17 02:33N 35°24' E 140°40'0 0.0
2016-Jul-17 01:33N 35°24' E 140°40'0 0.0
2016-Jul-17 00:33N 35°24' E 140°40'0 0.0
2016-Jul-16 23:33N 35°24' E 140°40'0 0.0
2016-Jul-16 22:22N 35°24' E 140°40'0 0.1
2016-Jul-16 21:33N 35°24' E 140°40'0 0.0
2016-Jul-16 20:33N 35°24' E 140°40'0 0.0
2016-Jul-16 18:24N 35°24' E 140°40'0 0.0
2016-Jul-16 17:13N 35°24' E 140°40'0 0.0
2016-Jul-16 16:24N 35°24' E 140°40'0 0.0
2016-Jul-16 15:34N 35°24' E 140°40'0 0.0
2016-Jul-16 14:33N 35°24' E 140°40'0 0.0
2016-Jul-16 13:05N 35°24' E 140°40'0 0.0
2016-Jul-16 11:33N 35°24' E 140°40'0 0.0
2016-Jul-16 10:31N 35°24' E 140°40'0 0.0
2016-Jul-16 09:32N 35°24' E 140°40'0 0.0
2016-Jul-16 08:31N 35°24' E 140°40'0 0.0
2016-Jul-16 07:25N 35°24' E 140°40'0 0.0
2016-Jul-16 06:31N 35°24' E 140°40'0 0.0
2016-Jul-16 04:31N 35°24' E 140°40'0 0.0
2016-Jul-16 03:25N 35°24' E 140°40'0 0.1
2016-Jul-16 02:33N 35°24' E 140°40'0 0.0
2016-Jul-16 01:08N 35°24' E 140°40'0 0.2
2016-Jul-16 00:33N 35°24' E 140°40'0 0.0
2016-Jul-15 23:19N 35°24' E 140°40'0 0.0
2016-Jul-15 22:07N 35°24' E 140°40'0 0.0
2016-Jul-15 21:28N 35°24' E 140°40'0 0.0
2016-Jul-15 20:29N 35°24' E 140°40'0 0.0
2016-Jul-15 19:20N 35°24' E 140°40'0 0.0
2016-Jul-15 18:21N 35°24' E 140°40'0 0.0
2016-Jul-15 16:19N 35°24' E 140°40'0 0.0
2016-Jul-15 15:32N 35°24' E 140°40'0 0.1
2016-Jul-15 14:32N 35°24' E 140°40'0 0.1
2016-Jul-15 13:29N 35°24' E 140°40'0 0.0
2016-Jul-15 12:06N 35°24' E 140°40'0 0.0
2016-Jul-15 11:13N 35°24' E 140°40'0 0.1
2016-Jul-15 10:33N 35°24' E 140°40'0 0.1
2016-Jul-15 09:17N 35°24' E 140°40'0 0.0
2016-Jul-15 08:25N 35°24' E 140°40'0 0.0
2016-Jul-15 07:28N 35°24' E 140°40'0 0.1
2016-Jul-15 06:32N 35°24' E 140°40'0 0.1
2016-Jul-15 05:33N 35°24' E 140°40'0 0.0
2016-Jul-15 04:28N 35°24' E 140°40'0 0.0
2016-Jul-15 03:26N 35°24' E 140°40'0 0.0
2016-Jul-15 02:32N 35°24' E 140°40'0 0.0
2016-Jul-15 01:32N 35°24' E 140°40'0 0.0
2016-Jul-15 00:15N 35°24' E 140°40'0 0.1
2016-Jul-14 23:33N 35°24' E 140°40'0 0.0
2016-Jul-14 22:33N 35°24' E 140°40'0 0.1
2016-Jul-14 21:33N 35°24' E 140°40'0 0.0
2016-Jul-14 20:25N 35°24' E 140°40'0 0.0
2016-Jul-14 19:33N 35°24' E 140°40'0 0.0
2016-Jul-14 18:30N 35°24' E 140°40'0 0.0
2016-Jul-14 17:33N 35°24' E 140°40'0 0.1
2016-Jul-14 16:33N 35°24' E 140°40'0 0.1
2016-Jul-14 15:33N 35°24' E 140°40'0 0.0
2016-Jul-14 14:33N 35°24' E 140°40'0 0.0
2016-Jul-14 13:33N 35°24' E 140°40'0 0.1
2016-Jul-14 12:30N 35°24' E 140°40'0 0.0
2016-Jul-14 11:32N 35°24' E 140°40'0 0.1
2016-Jul-14 09:29N 35°24' E 140°40'0 0.0
2016-Jul-14 08:33N 35°24' E 140°40'0 0.0
2016-Jul-14 04:30N 35°24' E 140°40'0 0.0
2016-Jul-14 03:28N 35°24' E 140°40'0 0.0
2016-Jul-14 02:24N 35°24' E 140°40'0 0.0
2016-Jul-13 16:26N 35°24' E 140°40'0 0.0
2016-Jul-13 15:32N 35°24' E 140°40'0 0.1
2016-Jul-13 14:22N 35°24' E 140°40'0 0.0
2016-Jul-13 13:33N 35°24' E 140°40'0 0.0
2016-Jul-13 12:33N 35°24' E 140°40'  
Track history (hours):
 
Tides and Currents Weather Stations Pressure Air Temp Water Temp Dewpoint Dewpoint Depression Visibility Wind Speed Wind Dir Waves Ship Positions

Thailine 5

Last reported at 2016-Jul-23 12:19 UTC. Time now 2016-Jul-23 13:07 UTC.
Position N 35°04' E 139°37'.

; draft 4.1 m.

Type: Cargo ship. MMSI: 533399000.

Date/timePositionNaut miles runAvg speedWind from/ knotsBaromVisibWave heightAir tempDewpointWater temp
2016-Jul-23 12:19N 35°04' E 139°37'810.0
2016-Jul-23 11:32N 35°09' E 139°44'9 9.4
2016-Jul-23 10:33N 35°18' E 139°44'9 8.8
2016-Jul-23 09:33N 35°27' E 139°47'1010.1
2016-Jul-23 08:33N 35°32' E 139°58'8 7.4
2016-Jul-23 07:32N 35°37' E 140°05'0 0.0
2016-Jul-23 06:32N 35°37' E 140°05'0 0.0
2016-Jul-23 04:26N 35°37' E 140°05'0 0.0
2016-Jul-23 03:32N 35°37' E 140°05'0 0.0
2016-Jul-23 02:32N 35°37' E 140°05'0 0.0
2016-Jul-23 01:32N 35°37' E 140°05'0 0.0
2016-Jul-22 23:32N 35°37' E 140°05'0 0.2
2016-Jul-22 22:32N 35°36' E 140°05'4 3.6
2016-Jul-22 21:32N 35°35' E 140°01'0 0.0
2016-Jul-22 20:20N 35°35' E 140°01'0 0.1
2016-Jul-22 19:29N 35°35' E 140°01'0 0.0
2016-Jul-22 18:23N 35°35' E 140°01'0 0.0
2016-Jul-22 17:23N 35°35' E 140°01'0 0.0
2016-Jul-22 16:11N 35°35' E 140°01'0 0.0
2016-Jul-22 15:23N 35°35' E 140°01'0 0.0
2016-Jul-22 14:29N 35°35' E 140°01'0 0.0
2016-Jul-22 13:32N 35°35' E 140°01'0 0.0
2016-Jul-22 12:32N 35°35' E 140°01'0 0.0
2016-Jul-22 11:29N 35°35' E 140°01'0 0.0
2016-Jul-22 10:23N 35°35' E 140°01'0 0.0
2016-Jul-22 09:29N 35°35' E 140°01'0 0.0
2016-Jul-22 08:17N 35°35' E 140°01'0 0.0
2016-Jul-22 07:29N 35°35' E 140°01'0 0.0
2016-Jul-22 04:29N 35°35' E 140°01'0 0.0
2016-Jul-22 03:29N 35°35' E 140°01'0 0.0
2016-Jul-22 02:23N 35°35' E 140°01'0 0.0
2016-Jul-22 01:23N 35°35' E 140°01'0 0.0
2016-Jul-22 00:11N 35°35' E 140°01'0 0.0
2016-Jul-21 23:29N 35°35' E 140°01'0 0.0
2016-Jul-21 22:29N 35°35' E 140°01'0 0.0
2016-Jul-21 21:29N 35°35' E 140°01'0 0.0
2016-Jul-21 20:32N 35°35' E 140°01'0 0.0
2016-Jul-21 19:29N 35°35' E 140°01'0 0.0
2016-Jul-21 18:23N 35°35' E 140°01'0 0.0
2016-Jul-21 17:29N 35°35' E 140°01'0 0.0
2016-Jul-21 16:32N 35°35' E 140°01'0 0.0
2016-Jul-21 15:29N 35°35' E 140°01'0 0.0
2016-Jul-21 14:32N 35°35' E 140°01'0 0.0
2016-Jul-21 13:23N 35°35' E 140°01'0 0.0
2016-Jul-21 12:23N 35°35' E 140°01'0 0.1
2016-Jul-21 11:32N 35°35' E 140°01'0 0.0
2016-Jul-21 10:32N 35°35' E 140°01'0 0.0
2016-Jul-21 09:32N 35°35' E 140°01'0 0.0
2016-Jul-21 08:29N 35°35' E 140°01'0 0.0
2016-Jul-21 07:17N 35°35' E 140°01'0 0.0
2016-Jul-21 06:29N 35°35' E 140°01'0 0.0
2016-Jul-21 04:29N 35°35' E 140°01'0 0.0
2016-Jul-21 03:26N 35°35' E 140°01'0 0.0
2016-Jul-21 02:32N 35°35' E 140°01'0 0.0
2016-Jul-21 01:29N 35°35' E 140°01'0 0.0
2016-Jul-21 00:29N 35°35' E 140°01'0 0.0
2016-Jul-20 23:29N 35°35' E 140°01'0 0.0
2016-Jul-20 22:17N 35°35' E 140°01'0 0.0
2016-Jul-20 21:29N 35°35' E 140°01'0 0.0
2016-Jul-20 20:29N 35°35' E 140°01'0 0.0
2016-Jul-20 19:29N 35°35' E 140°01'0 0.0
2016-Jul-20 18:29N 35°35' E 140°01'0 0.0
2016-Jul-20 17:29N 35°35' E 140°01'0 0.0
2016-Jul-20 16:23N 35°35' E 140°01'0 0.0
2016-Jul-20 15:29N 35°35' E 140°01'0 0.0
2016-Jul-20 12:23N 35°35' E 140°01'0 0.0
2016-Jul-20 11:29N 35°35' E 140°01'0 0.0
2016-Jul-20 10:29N 35°35' E 140°01'0 0.0
2016-Jul-20 09:29N 35°35' E 140°01'0 0.0
2016-Jul-20 08:29N 35°35' E 140°01'0 0.0
2016-Jul-20 07:29N 35°35' E 140°01'1 0.7
2016-Jul-20 05:32N 35°34' E 139°60'8 8.2
2016-Jul-20 04:33N 35°29' E 139°52'9 9.2
2016-Jul-20 03:33N 35°22' E 139°45'9 8.8
2016-Jul-20 02:33N 35°13' E 139°47'9 9.2
2016-Jul-20 01:33N 35°04' E 139°46'15 7.1
2016-Jul-19 23:29N 34°52' E 139°57'9 9.8
2016-Jul-19 22:33N 34°56' E 140°07'10 9.8
2016-Jul-19 21:33N 34°60' E 140°17'10 9.4
2016-Jul-19 20:30N 35°05' E 140°28'9 9.4
2016-Jul-19 19:33N 35°11' E 140°35'9 8.8
2016-Jul-19 18:33N 35°19' E 140°40'5 1.0
2016-Jul-19 13:19N 35°24' E 140°40'0 0.1
2016-Jul-19 12:23N 35°24' E 140°40'0 0.0
2016-Jul-19 03:05N 35°24' E 140°40'0 0.0
2016-Jul-19 02:32N 35°24' E 140°40'0 0.0
2016-Jul-19 01:32N 35°24' E 140°40'0 0.0
2016-Jul-19 00:33N 35°24' E 140°40'0 0.0
2016-Jul-18 22:33N 35°24' E 140°40'0 0.0
2016-Jul-18 20:33N 35°24' E 140°40'0 0.0
2016-Jul-18 19:26N 35°24' E 140°40'0 0.0
2016-Jul-18 16:24N 35°24' E 140°40'0 0.0
2016-Jul-18 15:15N 35°24' E 140°40'0 0.1
2016-Jul-18 14:12N 35°24' E 140°40'0 0.1
2016-Jul-18 13:27N 35°24' E 140°40'0 0.0
2016-Jul-18 12:12N 35°24' E 140°40'0 0.0
2016-Jul-18 11:20N 35°24' E 140°40'0 0.0
2016-Jul-18 10:27N 35°24' E 140°40'0 0.0
2016-Jul-18 09:33N 35°24' E 140°40'0 0.0
2016-Jul-18 08:33N 35°24' E 140°40'0 0.0
2016-Jul-18 07:33N 35°24' E 140°40'0 0.0
2016-Jul-18 06:25N 35°24' E 140°40'0 0.0
2016-Jul-18 05:30N 35°24' E 140°40'0 0.1
2016-Jul-18 04:19N 35°24' E 140°40'0 0.0
2016-Jul-18 03:24N 35°24' E 140°40'0 0.1
2016-Jul-18 02:26N 35°24' E 140°40'0 0.0
2016-Jul-18 01:33N 35°24' E 140°40'0 0.1
2016-Jul-18 00:33N 35°24' E 140°40'0 0.0
2016-Jul-17 21:13N 35°24' E 140°40'0 0.1
2016-Jul-17 20:11N 35°24' E 140°40'0 0.0
2016-Jul-17 19:33N 35°24' E 140°40'0 0.0
2016-Jul-17 18:26N 35°24' E 140°40'0 0.0
2016-Jul-17 17:33N 35°24' E 140°40'0 0.0
2016-Jul-17 16:33N 35°24' E 140°40'0 0.0
2016-Jul-17 15:33N 35°24' E 140°40'0 0.0
2016-Jul-17 14:32N 35°24' E 140°40'0 0.0
2016-Jul-17 09:19N 35°24' E 140°40'0 0.0
2016-Jul-17 06:09N 35°24' E 140°40'0 0.0
2016-Jul-17 04:33N 35°24' E 140°40'0 0.0
2016-Jul-17 03:33N 35°24' E 140°40'0 0.0
2016-Jul-17 02:33N 35°24' E 140°40'0 0.0
2016-Jul-17 01:33N 35°24' E 140°40'0 0.0
2016-Jul-17 00:33N 35°24' E 140°40'0 0.0
2016-Jul-16 23:33N 35°24' E 140°40'0 0.0
2016-Jul-16 22:22N 35°24' E 140°40'0 0.1
2016-Jul-16 21:33N 35°24' E 140°40'0 0.0
2016-Jul-16 20:33N 35°24' E 140°40'0 0.0
2016-Jul-16 18:24N 35°24' E 140°40'0 0.0
2016-Jul-16 17:13N 35°24' E 140°40'0 0.0
2016-Jul-16 16:24N 35°24' E 140°40'0 0.0
2016-Jul-16 15:34N 35°24' E 140°40'0 0.0
2016-Jul-16 14:33N 35°24' E 140°40'0 0.0
2016-Jul-16 13:05N 35°24' E 140°40'0 0.0
2016-Jul-16 11:33N 35°24' E 140°40'0 0.0
2016-Jul-16 10:31N 35°24' E 140°40'0 0.0
2016-Jul-16 09:32N 35°24' E 140°40'0 0.0
2016-Jul-16 08:31N 35°24' E 140°40'0 0.0
2016-Jul-16 07:25N 35°24' E 140°40'0 0.0
2016-Jul-16 06:31N 35°24' E 140°40'0 0.0
2016-Jul-16 04:31N 35°24' E 140°40'0 0.0
2016-Jul-16 03:25N 35°24' E 140°40'0 0.1
2016-Jul-16 02:33N 35°24' E 140°40'0 0.0
2016-Jul-16 01:08N 35°24' E 140°40'0 0.2
2016-Jul-16 00:33N 35°24' E 140°40'0 0.0
2016-Jul-15 23:19N 35°24' E 140°40'0 0.0
2016-Jul-15 22:07N 35°24' E 140°40'0 0.0
2016-Jul-15 21:28N 35°24' E 140°40'0 0.0
2016-Jul-15 20:29N 35°24' E 140°40'0 0.0
2016-Jul-15 19:20N 35°24' E 140°40'0 0.0
2016-Jul-15 18:21N 35°24' E 140°40'0 0.0
2016-Jul-15 16:19N 35°24' E 140°40'0 0.0
2016-Jul-15 15:32N 35°24' E 140°40'0 0.1
2016-Jul-15 14:32N 35°24' E 140°40'0 0.1
2016-Jul-15 13:29N 35°24' E 140°40'0 0.0
2016-Jul-15 12:06N 35°24' E 140°40'0 0.0
2016-Jul-15 11:13N 35°24' E 140°40'0 0.1
2016-Jul-15 10:33N 35°24' E 140°40'0 0.1
2016-Jul-15 09:17N 35°24' E 140°40'0 0.0
2016-Jul-15 08:25N 35°24' E 140°40'0 0.0
2016-Jul-15 07:28N 35°24' E 140°40'0 0.1
2016-Jul-15 06:32N 35°24' E 140°40'0 0.1
2016-Jul-15 05:33N 35°24' E 140°40'0 0.0
2016-Jul-15 04:28N 35°24' E 140°40'0 0.0
2016-Jul-15 03:26N 35°24' E 140°40'0 0.0
2016-Jul-15 02:32N 35°24' E 140°40'0 0.0
2016-Jul-15 01:32N 35°24' E 140°40'0 0.0
2016-Jul-15 00:15N 35°24' E 140°40'0 0.1
2016-Jul-14 23:33N 35°24' E 140°40'0 0.0
2016-Jul-14 22:33N 35°24' E 140°40'0 0.1
2016-Jul-14 21:33N 35°24' E 140°40'0 0.0
2016-Jul-14 20:25N 35°24' E 140°40'0 0.0
2016-Jul-14 19:33N 35°24' E 140°40'0 0.0
2016-Jul-14 18:30N 35°24' E 140°40'0 0.0
2016-Jul-14 17:33N 35°24' E 140°40'0 0.1
2016-Jul-14 16:33N 35°24' E 140°40'0 0.1
2016-Jul-14 15:33N 35°24' E 140°40'0 0.0
2016-Jul-14 14:33N 35°24' E 140°40'0 0.0
2016-Jul-14 13:33N 35°24' E 140°40'0 0.1
2016-Jul-14 12:30N 35°24' E 140°40'0 0.0
2016-Jul-14 11:32N 35°24' E 140°40'0 0.1
2016-Jul-14 09:29N 35°24' E 140°40'0 0.0
2016-Jul-14 08:33N 35°24' E 140°40'0 0.0
2016-Jul-14 04:30N 35°24' E 140°40'0 0.0
2016-Jul-14 03:28N 35°24' E 140°40'0 0.0
2016-Jul-14 02:24N 35°24' E 140°40'0 0.0
2016-Jul-13 16:26N 35°24' E 140°40'0 0.0
2016-Jul-13 15:32N 35°24' E 140°40'0 0.1
2016-Jul-13 14:22N 35°24' E 140°40'0 0.0
2016-Jul-13 13:33N 35°24' E 140°40'0 0.0
2016-Jul-13 12:33N 35°24' E 140°40'  

Dump ship's entire track history